sensor_id;sensor_type;location;lat;lon;timestamp;temperature;humidity
70154;DHT22;57519;51.494;-2.626;2023-02-01T00:01:37;6.27;78.97
70154;DHT22;57519;51.494;-2.626;2023-02-01T00:04:02;6.33;78.95
70154;DHT22;57519;51.494;-2.626;2023-02-01T00:06:28;6.34;78.82
70154;DHT22;57519;51.494;-2.626;2023-02-01T00:08:54;6.45;78.16
70154;DHT22;57519;51.494;-2.626;2023-02-01T00:11:20;6.41;78.44
70154;DHT22;57519;51.494;-2.626;2023-02-01T00:13:45;6.31;78.69
70154;DHT22;57519;51.494;-2.626;2023-02-01T00:16:14;6.27;79.04
70154;DHT22;57519;51.494;-2.626;2023-02-01T00:18:44;6.31;79.20
70154;DHT22;57519;51.494;-2.626;2023-02-01T00:21:11;6.30;79.00
70154;DHT22;57519;51.494;-2.626;2023-02-01T00:23:37;6.40;78.72
70154;DHT22;57519;51.494;-2.626;2023-02-01T00:26:06;6.36;78.62
70154;DHT22;57519;51.494;-2.626;2023-02-01T00:28:32;6.37;78.90
70154;DHT22;57519;51.494;-2.626;2023-02-01T00:31:02;6.23;79.16
70154;DHT22;57519;51.494;-2.626;2023-02-01T00:33:29;6.12;79.64
70154;DHT22;57519;51.494;-2.626;2023-02-01T00:35:59;6.09;79.75
70154;DHT22;57519;51.494;-2.626;2023-02-01T00:38:28;6.06;79.71
70154;DHT22;57519;51.494;-2.626;2023-02-01T00:40:56;6.00;79.97
70154;DHT22;57519;51.494;-2.626;2023-02-01T00:43:26;6.06;79.79
70154;DHT22;57519;51.494;-2.626;2023-02-01T00:45:51;6.16;79.68
70154;DHT22;57519;51.494;-2.626;2023-02-01T00:48:17;6.21;79.79
70154;DHT22;57519;51.494;-2.626;2023-02-01T00:50:43;6.20;79.57
70154;DHT22;57519;51.494;-2.626;2023-02-01T00:53:09;6.21;79.29
70154;DHT22;57519;51.494;-2.626;2023-02-01T00:55:35;6.30;78.98
70154;DHT22;57519;51.494;-2.626;2023-02-01T00:58:00;6.45;78.48
70154;DHT22;57519;51.494;-2.626;2023-02-01T01:00:26;6.50;78.22
70154;DHT22;57519;51.494;-2.626;2023-02-01T01:02:51;6.44;78.15
70154;DHT22;57519;51.494;-2.626;2023-02-01T01:05:17;6.42;78.44
70154;DHT22;57519;51.494;-2.626;2023-02-01T01:07:42;6.50;77.94
70154;DHT22;57519;51.494;-2.626;2023-02-01T01:10:08;6.47;77.86
70154;DHT22;57519;51.494;-2.626;2023-02-01T01:12:33;6.55;77.60
70154;DHT22;57519;51.494;-2.626;2023-02-01T01:14:59;6.47;77.92
70154;DHT22;57519;51.494;-2.626;2023-02-01T01:17:24;6.51;78.03
70154;DHT22;57519;51.494;-2.626;2023-02-01T01:19:49;6.61;77.69
70154;DHT22;57519;51.494;-2.626;2023-02-01T01:22:15;6.68;77.71
70154;DHT22;57519;51.494;-2.626;2023-02-01T01:24:40;6.77;77.52
70154;DHT22;57519;51.494;-2.626;2023-02-01T01:27:06;6.79;77.42
70154;DHT22;57519;51.494;-2.626;2023-02-01T01:29:31;6.91;77.42
70154;DHT22;57519;51.494;-2.626;2023-02-01T01:31:56;6.96;77.38
70154;DHT22;57519;51.494;-2.626;2023-02-01T01:34:22;7.03;77.28
70154;DHT22;57519;51.494;-2.626;2023-02-01T01:36:47;7.02;77.45
70154;DHT22;57519;51.494;-2.626;2023-02-01T01:39:13;7.07;77.52
70154;DHT22;57519;51.494;-2.626;2023-02-01T01:41:38;7.07;77.58
70154;DHT22;57519;51.494;-2.626;2023-02-01T01:44:53;7.10;77.62
70154;DHT22;57519;51.494;-2.626;2023-02-01T01:46:52;7.16;77.68
70154;DHT22;57519;51.494;-2.626;2023-02-01T01:49:22;7.19;77.66
70154;DHT22;57519;51.494;-2.626;2023-02-01T01:51:55;7.24;77.61
70154;DHT22;57519;51.494;-2.626;2023-02-01T01:54:26;7.24;77.57
70154;DHT22;57519;51.494;-2.626;2023-02-01T01:56:58;7.30;77.39
70154;DHT22;57519;51.494;-2.626;2023-02-01T01:59:24;7.30;77.34
70154;DHT22;57519;51.494;-2.626;2023-02-01T02:01:50;7.33;77.28
70154;DHT22;57519;51.494;-2.626;2023-02-01T02:04:16;7.38;76.93
70154;DHT22;57519;51.494;-2.626;2023-02-01T02:06:47;7.37;76.60
70154;DHT22;57519;51.494;-2.626;2023-02-01T02:09:14;7.40;76.60
70154;DHT22;57519;51.494;-2.626;2023-02-01T02:11:40;7.40;76.28
70154;DHT22;57519;51.494;-2.626;2023-02-01T02:14:08;7.37;76.19
70154;DHT22;57519;51.494;-2.626;2023-02-01T02:36:09;7.46;75.93
70154;DHT22;57519;51.494;-2.626;2023-02-01T02:38:47;7.47;76.11
70154;DHT22;57519;51.494;-2.626;2023-02-01T02:41:40;7.44;76.13
70154;DHT22;57519;51.494;-2.626;2023-02-01T02:44:47;7.48;76.00
70154;DHT22;57519;51.494;-2.626;2023-02-01T02:50:25;7.40;76.05
70154;DHT22;57519;51.494;-2.626;2023-02-01T02:53:16;7.46;75.85
70154;DHT22;57519;51.494;-2.626;2023-02-01T02:56:03;7.43;75.95
70154;DHT22;57519;51.494;-2.626;2023-02-01T02:58:50;7.40;76.27
70154;DHT22;57519;51.494;-2.626;2023-02-01T03:01:34;7.37;76.12
70154;DHT22;57519;51.494;-2.626;2023-02-01T03:04:18;7.44;75.78
70154;DHT22;57519;51.494;-2.626;2023-02-01T03:06:45;7.47;75.67
70154;DHT22;57519;51.494;-2.626;2023-02-01T03:09:26;7.43;75.53
70154;DHT22;57519;51.494;-2.626;2023-02-01T03:11:55;7.48;75.66
70154;DHT22;57519;51.494;-2.626;2023-02-01T03:14:41;7.53;75.42
70154;DHT22;57519;51.494;-2.626;2023-02-01T03:17:13;7.50;75.41
70154;DHT22;57519;51.494;-2.626;2023-02-01T03:19:45;7.50;75.81
70154;DHT22;57519;51.494;-2.626;2023-02-01T03:22:17;7.51;76.10
70154;DHT22;57519;51.494;-2.626;2023-02-01T03:24:52;7.51;76.43
70154;DHT22;57519;51.494;-2.626;2023-02-01T03:27:27;7.50;76.31
70154;DHT22;57519;51.494;-2.626;2023-02-01T03:32:36;7.44;76.88
70154;DHT22;57519;51.494;-2.626;2023-02-01T03:35:25;7.33;77.10
70154;DHT22;57519;51.494;-2.626;2023-02-01T03:37:54;7.27;77.31
70154;DHT22;57519;51.494;-2.626;2023-02-01T03:40:21;7.33;77.36
70154;DHT22;57519;51.494;-2.626;2023-02-01T03:42:51;7.42;76.86
70154;DHT22;57519;51.494;-2.626;2023-02-01T03:45:28;7.40;76.95
70154;DHT22;57519;51.494;-2.626;2023-02-01T03:47:58;7.44;77.01
70154;DHT22;57519;51.494;-2.626;2023-02-01T03:50:26;7.48;76.49
70154;DHT22;57519;51.494;-2.626;2023-02-01T03:53:06;7.43;76.85
70154;DHT22;57519;51.494;-2.626;2023-02-01T03:55:33;7.48;76.71
70154;DHT22;57519;51.494;-2.626;2023-02-01T03:58:13;7.47;76.80
70154;DHT22;57519;51.494;-2.626;2023-02-01T04:00:40;7.47;76.95
70154;DHT22;57519;51.494;-2.626;2023-02-01T04:03:06;7.40;77.40
70154;DHT22;57519;51.494;-2.626;2023-02-01T04:05:32;7.38;77.37
70154;DHT22;57519;51.494;-2.626;2023-02-01T04:07:58;7.38;77.48
70154;DHT22;57519;51.494;-2.626;2023-02-01T04:10:24;7.38;77.62
70154;DHT22;57519;51.494;-2.626;2023-02-01T04:12:50;7.33;78.17
70154;DHT22;57519;51.494;-2.626;2023-02-01T04:15:15;7.33;78.16
70154;DHT22;57519;51.494;-2.626;2023-02-01T04:17:41;7.30;78.21
70154;DHT22;57519;51.494;-2.626;2023-02-01T04:20:06;7.30;78.42
70154;DHT22;57519;51.494;-2.626;2023-02-01T04:22:32;7.23;78.62
70154;DHT22;57519;51.494;-2.626;2023-02-01T04:24:57;7.24;78.74
70154;DHT22;57519;51.494;-2.626;2023-02-01T04:27:23;7.23;78.73
70154;DHT22;57519;51.494;-2.626;2023-02-01T04:29:48;7.23;78.93
70154;DHT22;57519;51.494;-2.626;2023-02-01T04:32:17;7.15;79.21
70154;DHT22;57519;51.494;-2.626;2023-02-01T04:34:43;7.13;79.25
70154;DHT22;57519;51.494;-2.626;2023-02-01T04:37:08;7.19;78.90
70154;DHT22;57519;51.494;-2.626;2023-02-01T04:39:34;7.15;78.97
70154;DHT22;57519;51.494;-2.626;2023-02-01T04:41:59;7.17;78.84
70154;DHT22;57519;51.494;-2.626;2023-02-01T04:44:25;7.24;78.55
70154;DHT22;57519;51.494;-2.626;2023-02-01T04:46:50;7.30;78.55
70154;DHT22;57519;51.494;-2.626;2023-02-01T04:49:16;7.31;78.60
70154;DHT22;57519;51.494;-2.626;2023-02-01T04:51:42;7.23;78.79
70154;DHT22;57519;51.494;-2.626;2023-02-01T04:54:08;7.27;78.73
70154;DHT22;57519;51.494;-2.626;2023-02-01T04:56:36;7.28;78.84
70154;DHT22;57519;51.494;-2.626;2023-02-01T04:59:02;7.34;78.74
70154;DHT22;57519;51.494;-2.626;2023-02-01T05:01:28;7.31;78.78
70154;DHT22;57519;51.494;-2.626;2023-02-01T05:03:54;7.40;78.63
70154;DHT22;57519;51.494;-2.626;2023-02-01T05:06:20;7.36;78.77
70154;DHT22;57519;51.494;-2.626;2023-02-01T05:08:46;7.43;78.57
70154;DHT22;57519;51.494;-2.626;2023-02-01T05:11:12;7.57;77.96
70154;DHT22;57519;51.494;-2.626;2023-02-01T05:13:58;7.58;77.86
70154;DHT22;57519;51.494;-2.626;2023-02-01T05:16:24;7.60;77.74
70154;DHT22;57519;51.494;-2.626;2023-02-01T05:18:49;7.63;77.74
70154;DHT22;57519;51.494;-2.626;2023-02-01T05:21:15;7.61;77.73
70154;DHT22;57519;51.494;-2.626;2023-02-01T05:23:40;7.60;77.77
70154;DHT22;57519;51.494;-2.626;2023-02-01T05:26:25;7.63;77.71
70154;DHT22;57519;51.494;-2.626;2023-02-01T05:28:51;7.58;77.61
70154;DHT22;57519;51.494;-2.626;2023-02-01T05:31:16;7.60;77.43
70154;DHT22;57519;51.494;-2.626;2023-02-01T05:33:42;7.55;77.54
70154;DHT22;57519;51.494;-2.626;2023-02-01T05:36:07;7.50;77.78
70154;DHT22;57519;51.494;-2.626;2023-02-01T05:38:32;7.50;77.70
70154;DHT22;57519;51.494;-2.626;2023-02-01T05:40:58;7.51;77.49
70154;DHT22;57519;51.494;-2.626;2023-02-01T05:43:23;7.51;77.41
70154;DHT22;57519;51.494;-2.626;2023-02-01T05:45:49;7.46;77.66
70154;DHT22;57519;51.494;-2.626;2023-02-01T05:48:16;7.38;77.80
70154;DHT22;57519;51.494;-2.626;2023-02-01T05:50:43;7.33;77.85
70154;DHT22;57519;51.494;-2.626;2023-02-01T05:53:08;7.31;77.63
70154;DHT22;57519;51.494;-2.626;2023-02-01T05:55:33;7.33;77.71
70154;DHT22;57519;51.494;-2.626;2023-02-01T05:57:59;7.33;77.62
70154;DHT22;57519;51.494;-2.626;2023-02-01T06:00:24;7.28;77.76
70154;DHT22;57519;51.494;-2.626;2023-02-01T06:02:50;7.26;77.98
70154;DHT22;57519;51.494;-2.626;2023-02-01T06:05:15;7.23;78.12
70154;DHT22;57519;51.494;-2.626;2023-02-01T06:07:41;7.20;78.26
70154;DHT22;57519;51.494;-2.626;2023-02-01T06:10:08;7.16;78.44
70154;DHT22;57519;51.494;-2.626;2023-02-01T06:12:33;7.12;78.61
70154;DHT22;57519;51.494;-2.626;2023-02-01T06:14:59;7.12;78.53
70154;DHT22;57519;51.494;-2.626;2023-02-01T06:17:24;7.07;78.24
70154;DHT22;57519;51.494;-2.626;2023-02-01T06:19:50;7.13;77.80
70154;DHT22;57519;51.494;-2.626;2023-02-01T06:22:15;7.10;78.00
70154;DHT22;57519;51.494;-2.626;2023-02-01T06:24:40;7.12;77.84
70154;DHT22;57519;51.494;-2.626;2023-02-01T06:27:06;7.13;77.75
70154;DHT22;57519;51.494;-2.626;2023-02-01T06:29:32;7.17;77.64
70154;DHT22;57519;51.494;-2.626;2023-02-01T06:31:58;7.22;77.59
70154;DHT22;57519;51.494;-2.626;2023-02-01T06:34:24;7.20;77.65
70154;DHT22;57519;51.494;-2.626;2023-02-01T06:36:49;7.15;77.87
70154;DHT22;57519;51.494;-2.626;2023-02-01T06:39:15;7.10;77.94
70154;DHT22;57519;51.494;-2.626;2023-02-01T06:41:42;7.05;78.31
70154;DHT22;57519;51.494;-2.626;2023-02-01T06:44:08;7.09;78.25
70154;DHT22;57519;51.494;-2.626;2023-02-01T06:46:33;7.16;77.58
70154;DHT22;57519;51.494;-2.626;2023-02-01T06:48:59;7.10;77.93
70154;DHT22;57519;51.494;-2.626;2023-02-01T06:51:26;7.13;77.89
70154;DHT22;57519;51.494;-2.626;2023-02-01T06:53:51;7.17;77.94
70154;DHT22;57519;51.494;-2.626;2023-02-01T06:56:18;7.24;77.60
70154;DHT22;57519;51.494;-2.626;2023-02-01T06:58:43;7.16;78.08
70154;DHT22;57519;51.494;-2.626;2023-02-01T07:01:10;7.16;78.23
70154;DHT22;57519;51.494;-2.626;2023-02-01T07:03:36;7.10;78.53
70154;DHT22;57519;51.494;-2.626;2023-02-01T07:06:02;7.16;78.61
70154;DHT22;57519;51.494;-2.626;2023-02-01T07:08:28;7.16;78.60
70154;DHT22;57519;51.494;-2.626;2023-02-01T07:10:53;7.16;78.68
70154;DHT22;57519;51.494;-2.626;2023-02-01T07:13:19;7.13;78.70
70154;DHT22;57519;51.494;-2.626;2023-02-01T07:15:45;7.22;78.43
70154;DHT22;57519;51.494;-2.626;2023-02-01T07:18:13;7.20;78.54
70154;DHT22;57519;51.494;-2.626;2023-02-01T07:20:39;7.22;78.51
70154;DHT22;57519;51.494;-2.626;2023-02-01T07:23:05;7.23;78.45
70154;DHT22;57519;51.494;-2.626;2023-02-01T07:25:30;7.26;78.41
70154;DHT22;57519;51.494;-2.626;2023-02-01T07:27:57;7.24;78.47
70154;DHT22;57519;51.494;-2.626;2023-02-01T07:30:22;7.27;78.18
70154;DHT22;57519;51.494;-2.626;2023-02-01T07:32:48;7.27;78.40
70154;DHT22;57519;51.494;-2.626;2023-02-01T07:35:13;7.24;78.44
70154;DHT22;57519;51.494;-2.626;2023-02-01T07:37:39;7.24;78.57
70154;DHT22;57519;51.494;-2.626;2023-02-01T07:40:05;7.26;78.64
70154;DHT22;57519;51.494;-2.626;2023-02-01T07:42:31;7.24;78.54
70154;DHT22;57519;51.494;-2.626;2023-02-01T07:44:56;7.28;78.37
70154;DHT22;57519;51.494;-2.626;2023-02-01T07:47:22;7.26;78.45
70154;DHT22;57519;51.494;-2.626;2023-02-01T07:49:48;7.30;78.29
70154;DHT22;57519;51.494;-2.626;2023-02-01T07:52:13;7.30;78.33
70154;DHT22;57519;51.494;-2.626;2023-02-01T07:54:41;7.28;78.41
70154;DHT22;57519;51.494;-2.626;2023-02-01T07:57:06;7.33;78.24
70154;DHT22;57519;51.494;-2.626;2023-02-01T07:59:33;7.31;78.43
70154;DHT22;57519;51.494;-2.626;2023-02-01T08:01:59;7.30;78.34
70154;DHT22;57519;51.494;-2.626;2023-02-01T08:04:24;7.30;78.48
70154;DHT22;57519;51.494;-2.626;2023-02-01T08:06:50;7.23;78.89
70154;DHT22;57519;51.494;-2.626;2023-02-01T08:09:15;7.27;78.91
70154;DHT22;57519;51.494;-2.626;2023-02-01T08:11:41;7.28;78.87
70154;DHT22;57519;51.494;-2.626;2023-02-01T08:14:06;7.34;78.73
70154;DHT22;57519;51.494;-2.626;2023-02-01T08:16:33;7.40;78.69
70154;DHT22;57519;51.494;-2.626;2023-02-01T08:19:02;7.44;78.61
70154;DHT22;57519;51.494;-2.626;2023-02-01T08:21:28;7.46;78.55
70154;DHT22;57519;51.494;-2.626;2023-02-01T08:24:04;7.48;78.52
70154;DHT22;57519;51.494;-2.626;2023-02-01T08:26:30;7.47;78.65
70154;DHT22;57519;51.494;-2.626;2023-02-01T08:28:58;7.51;78.68
70154;DHT22;57519;51.494;-2.626;2023-02-01T08:31:27;7.51;78.82
70154;DHT22;57519;51.494;-2.626;2023-02-01T08:33:55;7.55;78.62
70154;DHT22;57519;51.494;-2.626;2023-02-01T08:36:22;7.53;78.91
70154;DHT22;57519;51.494;-2.626;2023-02-01T08:38:48;7.61;78.65
70154;DHT22;57519;51.494;-2.626;2023-02-01T08:41:16;7.61;78.62
70154;DHT22;57519;51.494;-2.626;2023-02-01T08:43:42;7.60;78.77
70154;DHT22;57519;51.494;-2.626;2023-02-01T08:46:09;7.70;78.75
70154;DHT22;57519;51.494;-2.626;2023-02-01T08:48:35;7.70;78.26
70154;DHT22;57519;51.494;-2.626;2023-02-01T08:51:02;7.82;78.05
70154;DHT22;57519;51.494;-2.626;2023-02-01T08:53:28;7.89;78.06
70154;DHT22;57519;51.494;-2.626;2023-02-01T08:55:54;7.92;78.06
70154;DHT22;57519;51.494;-2.626;2023-02-01T08:58:19;7.88;78.10
70154;DHT22;57519;51.494;-2.626;2023-02-01T09:00:47;7.88;78.01
70154;DHT22;57519;51.494;-2.626;2023-02-01T09:03:14;7.89;78.00
70154;DHT22;57519;51.494;-2.626;2023-02-01T09:05:40;7.85;78.24
70154;DHT22;57519;51.494;-2.626;2023-02-01T09:08:06;8.01;77.95
70154;DHT22;57519;51.494;-2.626;2023-02-01T09:10:33;8.16;77.54
70154;DHT22;57519;51.494;-2.626;2023-02-01T09:12:58;8.28;77.24
70154;DHT22;57519;51.494;-2.626;2023-02-01T09:15:24;8.33;77.01
70154;DHT22;57519;51.494;-2.626;2023-02-01T09:17:50;8.33;76.73
70154;DHT22;57519;51.494;-2.626;2023-02-01T09:20:18;8.37;76.73
70154;DHT22;57519;51.494;-2.626;2023-02-01T09:22:45;8.47;76.60
70154;DHT22;57519;51.494;-2.626;2023-02-01T09:25:11;8.56;76.12
70154;DHT22;57519;51.494;-2.626;2023-02-01T09:27:36;8.59;76.21
70154;DHT22;57519;51.494;-2.626;2023-02-01T09:30:03;8.63;76.22
70154;DHT22;57519;51.494;-2.626;2023-02-01T09:32:30;8.64;76.18
70154;DHT22;57519;51.494;-2.626;2023-02-01T09:34:55;8.50;76.31
70154;DHT22;57519;51.494;-2.626;2023-02-01T09:37:20;8.46;76.26
70154;DHT22;57519;51.494;-2.626;2023-02-01T09:39:46;8.46;76.58
70154;DHT22;57519;51.494;-2.626;2023-02-01T09:44:58;8.40;76.38
70154;DHT22;57519;51.494;-2.626;2023-02-01T09:47:28;8.41;76.55
70154;DHT22;57519;51.494;-2.626;2023-02-01T09:52:31;8.51;76.27
70154;DHT22;57519;51.494;-2.626;2023-02-01T09:55:04;8.57;75.78
70154;DHT22;57519;51.494;-2.626;2023-02-01T09:57:49;8.67;75.77
70154;DHT22;57519;51.494;-2.626;2023-02-01T10:00:20;8.72;75.57
70154;DHT22;57519;51.494;-2.626;2023-02-01T10:02:49;8.74;75.51
70154;DHT22;57519;51.494;-2.626;2023-02-01T10:05:21;8.75;75.57
70154;DHT22;57519;51.494;-2.626;2023-02-01T10:17:14;8.92;75.32
70154;DHT22;57519;51.494;-2.626;2023-02-01T10:22:48;9.04;74.79
70154;DHT22;57519;51.494;-2.626;2023-02-01T10:25:28;9.09;74.78
70154;DHT22;57519;51.494;-2.626;2023-02-01T10:27:56;9.16;74.66
70154;DHT22;57519;51.494;-2.626;2023-02-01T10:30:30;9.23;74.32
70154;DHT22;57519;51.494;-2.626;2023-02-01T10:33:07;9.28;74.21
70154;DHT22;57519;51.494;-2.626;2023-02-01T10:35:38;9.46;73.78
70154;DHT22;57519;51.494;-2.626;2023-02-01T10:38:12;9.43;73.74
70154;DHT22;57519;51.494;-2.626;2023-02-01T10:40:40;9.39;73.87
70154;DHT22;57519;51.494;-2.626;2023-02-01T10:43:09;9.39;73.77
70154;DHT22;57519;51.494;-2.626;2023-02-01T10:45:36;9.39;73.97
70154;DHT22;57519;51.494;-2.626;2023-02-01T10:48:03;9.47;73.77
70154;DHT22;57519;51.494;-2.626;2023-02-01T10:53:34;9.76;72.59
70154;DHT22;57519;51.494;-2.626;2023-02-01T10:56:08;9.84;72.34
70154;DHT22;57519;51.494;-2.626;2023-02-01T10:58:36;9.93;72.01
70154;DHT22;57519;51.494;-2.626;2023-02-01T11:01:09;9.91;71.57
70154;DHT22;57519;51.494;-2.626;2023-02-01T11:03:41;9.87;72.29
70154;DHT22;57519;51.494;-2.626;2023-02-01T11:08:52;9.97;71.91
70154;DHT22;57519;51.494;-2.626;2023-02-01T11:11:18;9.95;71.55
70154;DHT22;57519;51.494;-2.626;2023-02-01T11:13:44;9.98;71.94
70154;DHT22;57519;51.494;-2.626;2023-02-01T11:16:13;10.01;71.58
70154;DHT22;57519;51.494;-2.626;2023-02-01T11:18:40;10.08;71.22
70154;DHT22;57519;51.494;-2.626;2023-02-01T11:21:07;10.02;71.34
70154;DHT22;57519;51.494;-2.626;2023-02-01T11:23:33;9.98;71.50
70154;DHT22;57519;51.494;-2.626;2023-02-01T11:26:09;10.08;71.69
70154;DHT22;57519;51.494;-2.626;2023-02-01T11:28:39;10.15;71.21
70154;DHT22;57519;51.494;-2.626;2023-02-01T11:31:09;10.08;71.14
70154;DHT22;57519;51.494;-2.626;2023-02-01T11:33:37;10.16;71.31
70154;DHT22;57519;51.494;-2.626;2023-02-01T11:36:10;10.12;71.30
70154;DHT22;57519;51.494;-2.626;2023-02-01T11:38:37;10.09;71.06
70154;DHT22;57519;51.494;-2.626;2023-02-01T11:41:25;10.01;71.14
70154;DHT22;57519;51.494;-2.626;2023-02-01T11:44:02;9.98;71.04
70154;DHT22;57519;51.494;-2.626;2023-02-01T11:46:41;10.05;70.88
70154;DHT22;57519;51.494;-2.626;2023-02-01T11:52:17;10.04;70.54
70154;DHT22;57519;51.494;-2.626;2023-02-01T11:55:02;10.12;70.59
70154;DHT22;57519;51.494;-2.626;2023-02-01T12:05:32;10.36;70.67
70154;DHT22;57519;51.494;-2.626;2023-02-01T12:13:55;10.39;70.29
70154;DHT22;57519;51.494;-2.626;2023-02-01T12:22:42;10.42;69.95
70154;DHT22;57519;51.494;-2.626;2023-02-01T12:36:19;10.35;71.06
70154;DHT22;57519;51.494;-2.626;2023-02-01T12:39:06;10.48;70.98
70154;DHT22;57519;51.494;-2.626;2023-02-01T12:41:49;10.64;70.85
70154;DHT22;57519;51.494;-2.626;2023-02-01T12:47:12;10.84;70.80
70154;DHT22;57519;51.494;-2.626;2023-02-01T12:49:59;10.74;71.07
70154;DHT22;57519;51.494;-2.626;2023-02-01T12:52:42;10.80;70.91
70154;DHT22;57519;51.494;-2.626;2023-02-01T12:57:53;10.52;71.44
70154;DHT22;57519;51.494;-2.626;2023-02-01T13:00:30;10.43;71.67
70154;DHT22;57519;51.494;-2.626;2023-02-01T13:05:51;10.42;71.87
70154;DHT22;57519;51.494;-2.626;2023-02-01T13:08:25;10.39;71.90
70154;DHT22;57519;51.494;-2.626;2023-02-01T13:10:58;10.43;72.15
70154;DHT22;57519;51.494;-2.626;2023-02-01T13:13:55;10.29;71.70
70154;DHT22;57519;51.494;-2.626;2023-02-01T13:16:31;10.38;71.70
70154;DHT22;57519;51.494;-2.626;2023-02-01T13:22:00;10.39;71.89
70154;DHT22;57519;51.494;-2.626;2023-02-01T13:24:37;10.42;71.76
70154;DHT22;57519;51.494;-2.626;2023-02-01T13:27:03;10.33;71.81
70154;DHT22;57519;51.494;-2.626;2023-02-01T13:29:30;10.33;72.16
70154;DHT22;57519;51.494;-2.626;2023-02-01T13:37:47;10.41;71.88
70154;DHT22;57519;51.494;-2.626;2023-02-01T13:42:57;10.46;71.56
70154;DHT22;57519;51.494;-2.626;2023-02-01T13:45:26;10.50;70.77
70154;DHT22;57519;51.494;-2.626;2023-02-01T13:47:54;10.56;71.01
70154;DHT22;57519;51.494;-2.626;2023-02-01T13:50:30;10.60;71.05
70154;DHT22;57519;51.494;-2.626;2023-02-01T13:55:38;10.57;70.64
70154;DHT22;57519;51.494;-2.626;2023-02-01T13:58:19;10.77;70.83
70154;DHT22;57519;51.494;-2.626;2023-02-01T14:00:45;10.57;70.17
70154;DHT22;57519;51.494;-2.626;2023-02-01T14:03:14;10.67;69.69
70154;DHT22;57519;51.494;-2.626;2023-02-01T14:13:41;10.67;69.61
70154;DHT22;57519;51.494;-2.626;2023-02-01T14:16:13;10.73;70.24
70154;DHT22;57519;51.494;-2.626;2023-02-01T14:21:30;10.57;69.90
70154;DHT22;57519;51.494;-2.626;2023-02-01T14:26:44;10.62;69.86
70154;DHT22;57519;51.494;-2.626;2023-02-01T14:35:06;10.70;70.44
70154;DHT22;57519;51.494;-2.626;2023-02-01T14:45:45;10.90;71.15
70154;DHT22;57519;51.494;-2.626;2023-02-01T14:47:41;10.85;71.59
70154;DHT22;57519;51.494;-2.626;2023-02-01T14:52:39;10.83;72.76
70154;DHT22;57519;51.494;-2.626;2023-02-01T14:55:16;10.84;72.94
70154;DHT22;57519;51.494;-2.626;2023-02-01T14:57:43;10.84;73.12
70154;DHT22;57519;51.494;-2.626;2023-02-01T15:00:19;10.79;73.33
70154;DHT22;57519;51.494;-2.626;2023-02-01T15:02:46;10.73;73.38
70154;DHT22;57519;51.494;-2.626;2023-02-01T15:05:29;10.63;74.11
70154;DHT22;57519;51.494;-2.626;2023-02-01T15:07:58;10.56;73.93
70154;DHT22;57519;51.494;-2.626;2023-02-01T15:10:25;10.63;73.69
70154;DHT22;57519;51.494;-2.626;2023-02-01T15:12:51;10.49;73.84
70154;DHT22;57519;51.494;-2.626;2023-02-01T15:15:20;10.36;74.30
70154;DHT22;57519;51.494;-2.626;2023-02-01T15:18:04;10.31;74.38
70154;DHT22;57519;51.494;-2.626;2023-02-01T15:20:32;10.25;74.74
70154;DHT22;57519;51.494;-2.626;2023-02-01T15:23:14;10.22;74.83
70154;DHT22;57519;51.494;-2.626;2023-02-01T15:25:40;10.19;75.14
70154;DHT22;57519;51.494;-2.626;2023-02-01T15:28:13;10.14;75.53
70154;DHT22;57519;51.494;-2.626;2023-02-01T15:30:39;10.09;75.52
70154;DHT22;57519;51.494;-2.626;2023-02-01T15:33:08;10.01;75.73
70154;DHT22;57519;51.494;-2.626;2023-02-01T15:35:40;9.99;75.95
70154;DHT22;57519;51.494;-2.626;2023-02-01T15:41:14;9.94;76.03
70154;DHT22;57519;51.494;-2.626;2023-02-01T15:43:41;9.90;76.12
70154;DHT22;57519;51.494;-2.626;2023-02-01T15:46:14;9.91;76.05
70154;DHT22;57519;51.494;-2.626;2023-02-01T15:48:46;9.87;75.83
70154;DHT22;57519;51.494;-2.626;2023-02-01T15:51:16;9.91;75.80
70154;DHT22;57519;51.494;-2.626;2023-02-01T15:53:53;9.95;75.60
70154;DHT22;57519;51.494;-2.626;2023-02-01T15:56:28;9.90;75.86
70154;DHT22;57519;51.494;-2.626;2023-02-01T15:58:59;9.78;75.68
70154;DHT22;57519;51.494;-2.626;2023-02-01T16:01:26;9.78;75.93
70154;DHT22;57519;51.494;-2.626;2023-02-01T16:04:23;9.74;75.95
70154;DHT22;57519;51.494;-2.626;2023-02-01T16:07:00;9.69;76.19
70154;DHT22;57519;51.494;-2.626;2023-02-01T16:09:37;9.67;76.43
70154;DHT22;57519;51.494;-2.626;2023-02-01T16:12:22;9.67;76.65
70154;DHT22;57519;51.494;-2.626;2023-02-01T16:14:49;9.63;77.05
70154;DHT22;57519;51.494;-2.626;2023-02-01T16:17:14;9.61;77.17
70154;DHT22;57519;51.494;-2.626;2023-02-01T16:19:40;9.60;77.33
70154;DHT22;57519;51.494;-2.626;2023-02-01T16:22:05;9.54;77.42
70154;DHT22;57519;51.494;-2.626;2023-02-01T16:24:31;9.58;77.57
70154;DHT22;57519;51.494;-2.626;2023-02-01T16:26:58;9.53;77.57
70154;DHT22;57519;51.494;-2.626;2023-02-01T16:29:24;9.53;77.48
70154;DHT22;57519;51.494;-2.626;2023-02-01T16:31:51;9.53;77.43
70154;DHT22;57519;51.494;-2.626;2023-02-01T16:34:17;9.48;77.54
70154;DHT22;57519;51.494;-2.626;2023-02-01T16:36:43;9.47;77.61
70154;DHT22;57519;51.494;-2.626;2023-02-01T16:39:12;9.43;77.71
70154;DHT22;57519;51.494;-2.626;2023-02-01T16:41:38;9.39;77.89
70154;DHT22;57519;51.494;-2.626;2023-02-01T16:44:04;9.42;78.18
70154;DHT22;57519;51.494;-2.626;2023-02-01T16:46:35;9.33;78.39
70154;DHT22;57519;51.494;-2.626;2023-02-01T16:49:05;9.28;78.66
70154;DHT22;57519;51.494;-2.626;2023-02-01T16:51:32;9.19;79.00
70154;DHT22;57519;51.494;-2.626;2023-02-01T16:53:58;9.11;79.28
70154;DHT22;57519;51.494;-2.626;2023-02-01T16:56:32;9.07;79.51
70154;DHT22;57519;51.494;-2.626;2023-02-01T16:58:58;9.05;79.65
70154;DHT22;57519;51.494;-2.626;2023-02-01T17:01:24;9.07;79.63
70154;DHT22;57519;51.494;-2.626;2023-02-01T17:03:49;9.09;79.31
70154;DHT22;57519;51.494;-2.626;2023-02-01T17:06:20;9.09;79.33
70154;DHT22;57519;51.494;-2.626;2023-02-01T17:08:54;9.14;79.28
70154;DHT22;57519;51.494;-2.626;2023-02-01T17:11:20;9.12;79.08
70154;DHT22;57519;51.494;-2.626;2023-02-01T17:13:46;9.11;79.12
70154;DHT22;57519;51.494;-2.626;2023-02-01T17:18:44;9.07;79.41
70154;DHT22;57519;51.494;-2.626;2023-02-01T17:21:12;9.09;79.74
70154;DHT22;57519;51.494;-2.626;2023-02-01T17:23:37;9.04;79.76
70154;DHT22;57519;51.494;-2.626;2023-02-01T17:26:03;9.08;79.81
70154;DHT22;57519;51.494;-2.626;2023-02-01T17:28:29;9.11;79.89
70154;DHT22;57519;51.494;-2.626;2023-02-01T17:30:55;9.04;80.23
70154;DHT22;57519;51.494;-2.626;2023-02-01T17:33:25;9.05;80.42
70154;DHT22;57519;51.494;-2.626;2023-02-01T17:35:54;9.02;80.75
70154;DHT22;57519;51.494;-2.626;2023-02-01T17:38:20;9.07;80.83
70154;DHT22;57519;51.494;-2.626;2023-02-01T17:40:46;9.02;81.07
70154;DHT22;57519;51.494;-2.626;2023-02-01T17:43:13;8.98;80.94
70154;DHT22;57519;51.494;-2.626;2023-02-01T17:45:44;9.01;80.98
70154;DHT22;57519;51.494;-2.626;2023-02-01T17:48:14;9.04;80.77
70154;DHT22;57519;51.494;-2.626;2023-02-01T17:50:43;9.04;80.62
70154;DHT22;57519;51.494;-2.626;2023-02-01T17:53:12;9.08;80.44
70154;DHT22;57519;51.494;-2.626;2023-02-01T17:55:42;9.07;80.42
70154;DHT22;57519;51.494;-2.626;2023-02-01T17:58:10;9.05;80.26
70154;DHT22;57519;51.494;-2.626;2023-02-01T18:00:37;9.04;80.48